createdAt,value
2022-11-16T00:00:04.422Z,7.3
2022-11-16T00:10:00.301Z,7.3
2022-11-16T00:20:00.309Z,7.2
2022-11-16T00:30:00.232Z,7.3
2022-11-16T00:40:00.271Z,7.3
2022-11-16T00:50:00.267Z,7.2
2022-11-16T01:00:00.261Z,7.2
2022-11-16T01:10:00.360Z,7.2
2022-11-16T01:20:00.292Z,7.2
2022-11-16T01:30:00.256Z,7.1
2022-11-16T01:40:00.280Z,7.1
2022-11-16T01:50:00.271Z,7.1
2022-11-16T02:00:00.246Z,7.1
2022-11-16T02:10:00.305Z,7.1
2022-11-16T02:20:00.266Z,7.0
2022-11-16T02:30:00.270Z,7.0
2022-11-16T02:40:00.309Z,6.9
2022-11-16T02:50:00.254Z,6.9
2022-11-16T03:00:00.305Z,6.8
2022-11-16T03:10:00.298Z,6.8
2022-11-16T03:20:00.325Z,6.7
2022-11-16T03:30:00.290Z,6.7
2022-11-16T03:40:00.318Z,6.7
2022-11-16T03:50:00.288Z,6.6
2022-11-16T04:00:00.271Z,6.6
2022-11-16T04:10:00.313Z,6.6
2022-11-16T04:20:00.269Z,6.5
2022-11-16T04:30:00.252Z,6.4
2022-11-16T04:40:00.317Z,6.4
2022-11-16T04:50:00.282Z,6.4
2022-11-16T05:00:00.332Z,6.3
2022-11-16T05:10:00.292Z,6.3
2022-11-16T05:20:00.354Z,6.3
2022-11-16T05:30:00.288Z,6.2
2022-11-16T05:40:00.270Z,6.2
2022-11-16T05:50:00.242Z,6.1
2022-11-16T06:00:00.279Z,6.1
2022-11-16T06:10:00.300Z,6.0
2022-11-16T06:20:00.274Z,5.9
2022-11-16T06:30:00.313Z,5.9
2022-11-16T06:40:00.250Z,5.9
2022-11-16T06:50:00.259Z,5.9
2022-11-16T07:00:00.269Z,5.8
2022-11-16T07:10:00.296Z,5.8
2022-11-16T07:20:00.246Z,5.8
2022-11-16T07:30:00.239Z,5.8
2022-11-16T07:40:00.294Z,5.8
2022-11-16T07:50:00.257Z,5.7
2022-11-16T08:00:00.255Z,5.8
2022-11-16T08:10:00.268Z,5.8
2022-11-16T08:20:00.232Z,5.8
2022-11-16T08:30:00.238Z,5.8
2022-11-16T08:40:00.331Z,5.8
2022-11-16T08:50:00.278Z,5.9
2022-11-16T09:00:00.268Z,6.0
2022-11-16T09:10:00.252Z,6.1
2022-11-16T09:20:00.263Z,6.1
2022-11-16T09:30:00.254Z,6.1
2022-11-16T09:40:00.323Z,6.2
2022-11-16T09:50:03.552Z,6.2
2022-11-16T10:00:00.266Z,6.2
2022-11-16T10:10:00.280Z,6.3
2022-11-16T10:20:00.257Z,6.3
2022-11-16T10:30:00.417Z,6.4
2022-11-16T10:40:00.333Z,6.5
2022-11-16T10:50:00.253Z,6.6
2022-11-16T11:00:00.260Z,6.7
2022-11-16T11:10:00.259Z,6.8
2022-11-16T11:20:00.265Z,6.9
2022-11-16T11:30:00.293Z,6.9
2022-11-16T11:40:00.344Z,7.0
2022-11-16T11:50:00.265Z,7.1
2022-11-16T12:00:00.291Z,7.1
2022-11-16T12:10:00.241Z,7.1
2022-11-16T12:20:00.228Z,7.1
2022-11-16T12:30:00.258Z,7.1
2022-11-16T12:40:00.320Z,7.1
2022-11-16T12:50:00.265Z,7.1
2022-11-16T13:00:00.247Z,7.1
2022-11-16T13:10:00.253Z,7.1
2022-11-16T13:20:00.261Z,7.1
2022-11-16T13:30:00.258Z,7.1
2022-11-16T13:40:00.321Z,7.2
2022-11-16T13:50:00.238Z,7.2
2022-11-16T14:00:00.255Z,7.3
2022-11-16T14:10:00.275Z,7.3
2022-11-16T14:20:00.247Z,7.4
2022-11-16T14:30:00.277Z,7.5
2022-11-16T14:40:00.317Z,7.6
2022-11-16T14:50:00.256Z,7.6
2022-11-16T15:00:00.278Z,7.6
2022-11-16T15:10:00.309Z,7.6
2022-11-16T15:20:00.232Z,7.5
2022-11-16T15:30:00.236Z,7.5
2022-11-16T15:40:00.269Z,7.4
2022-11-16T15:50:00.239Z,7.4
2022-11-16T16:00:00.234Z,7.3
2022-11-16T16:10:00.244Z,7.2
2022-11-16T16:20:00.264Z,7.1
2022-11-16T16:30:00.252Z,7.1
2022-11-16T16:40:00.382Z,7.1
2022-11-16T16:50:00.290Z,7.0
2022-11-16T17:00:00.320Z,7.0
2022-11-16T17:10:00.334Z,6.9
2022-11-16T17:20:00.370Z,6.8
2022-11-16T17:30:00.658Z,6.7
2022-11-16T17:40:00.333Z,6.7
2022-11-16T17:50:00.303Z,6.7
2022-11-16T18:00:00.284Z,6.6
2022-11-16T18:10:00.278Z,6.5
2022-11-16T18:20:00.307Z,6.4
2022-11-16T18:30:00.292Z,6.3
2022-11-16T18:40:00.345Z,6.2
2022-11-16T18:50:00.273Z,6.2
2022-11-16T19:00:00.249Z,6.0
2022-11-16T19:10:00.267Z,5.9
2022-11-16T19:20:00.227Z,5.8
2022-11-16T19:30:00.252Z,5.8
2022-11-16T19:40:00.327Z,5.8
2022-11-16T19:50:00.241Z,5.8
2022-11-16T20:00:00.263Z,5.8
2022-11-16T20:10:00.283Z,5.8
2022-11-16T20:20:00.239Z,5.7
2022-11-16T20:30:02.698Z,5.6
2022-11-16T20:40:01.200Z,5.6
2022-11-16T20:50:00.261Z,5.6
2022-11-16T21:00:00.234Z,5.6
2022-11-16T21:10:00.260Z,5.5
2022-11-16T21:20:25.620Z,5.4
2022-11-16T21:30:02.354Z,5.3
2022-11-16T21:40:00.259Z,5.2
2022-11-16T21:50:29.897Z,5.1
2022-11-16T22:00:00.310Z,4.9
2022-11-16T22:10:00.232Z,4.9
2022-11-16T22:20:00.249Z,4.8
2022-11-16T22:30:00.274Z,4.8
2022-11-16T22:40:00.263Z,4.8
2022-11-16T22:50:00.750Z,4.8
2022-11-16T23:00:00.457Z,4.7
2022-11-16T23:10:00.253Z,4.8
2022-11-16T23:20:00.284Z,4.8
2022-11-16T23:30:00.257Z,4.8
2022-11-16T23:40:00.512Z,4.7
2022-11-16T23:50:00.332Z,4.7
